createdAt,value
2018-09-13T00:00:22.561Z,2.47
2018-09-13T00:02:52.754Z,3.57
2018-09-13T00:05:22.811Z,4.50
2018-09-13T00:07:53.045Z,3.80
2018-09-13T00:10:23.619Z,3.50
2018-09-13T00:12:54.193Z,3.30
2018-09-13T00:15:24.197Z,3.20
2018-09-13T00:17:55.041Z,4.63
2018-09-13T00:20:25.089Z,4.40
2018-09-13T00:22:55.136Z,4.97
2018-09-13T00:25:25.195Z,4.70
2018-09-13T00:27:55.244Z,4.80
2018-09-13T00:30:25.281Z,5.13
2018-09-13T00:32:55.522Z,5.00
2018-09-13T00:35:25.538Z,5.20
2018-09-13T00:37:55.610Z,5.67
2018-09-13T00:40:26.246Z,5.97
2018-09-13T00:42:56.360Z,6.40
2018-09-13T00:45:26.480Z,6.97
2018-09-13T00:47:56.564Z,6.17
2018-09-13T00:50:26.732Z,5.43
2018-09-13T00:52:57.202Z,5.90
2018-09-13T00:55:27.422Z,6.17
2018-09-13T00:57:58.794Z,5.90
2018-09-13T01:00:29.344Z,5.60
2018-09-13T01:02:59.976Z,7.03
2018-09-13T01:05:30.096Z,6.23
2018-09-13T01:08:00.212Z,5.73
2018-09-13T01:10:30.245Z,6.70
2018-09-13T01:13:01.111Z,6.63
2018-09-13T01:15:31.225Z,6.17
2018-09-13T01:18:01.393Z,5.80
2018-09-13T01:20:31.455Z,7.70
2018-09-13T01:23:01.480Z,6.63
2018-09-13T01:25:31.559Z,7.10
2018-09-13T01:28:02.252Z,5.47
2018-09-13T01:30:33.124Z,6.00
2018-09-13T01:33:03.298Z,6.80
2018-09-13T01:35:34.044Z,6.03
2018-09-13T01:38:04.129Z,6.47
2018-09-13T01:40:34.186Z,6.13
2018-09-13T01:43:05.266Z,7.10
2018-09-13T01:45:35.328Z,6.40
2018-09-13T01:48:05.554Z,6.00
2018-09-13T01:50:35.658Z,6.00
2018-09-13T01:53:05.893Z,6.03
2018-09-13T01:55:36.042Z,5.83
2018-09-13T01:58:06.806Z,6.20
2018-09-13T02:00:36.842Z,6.10
2018-09-13T02:03:07.181Z,6.00
2018-09-13T02:05:37.252Z,5.77
2018-09-13T02:08:07.386Z,5.67
2018-09-13T02:10:37.536Z,5.60
2018-09-13T02:13:07.800Z,6.00
2018-09-13T02:15:37.978Z,5.77
2018-09-13T02:18:08.020Z,5.70
2018-09-13T02:20:38.104Z,6.27
2018-09-13T02:23:09.702Z,5.83
2018-09-13T02:25:39.888Z,6.03
2018-09-13T02:28:10.006Z,6.00
2018-09-13T02:30:40.229Z,6.43
2018-09-13T02:33:10.315Z,6.00
2018-09-13T02:35:40.367Z,5.83
2018-09-13T02:38:10.542Z,6.10
2018-09-13T02:40:40.656Z,6.43
2018-09-13T02:43:10.765Z,5.30
2018-09-13T02:45:40.895Z,5.97
2018-09-13T02:48:11.628Z,5.13
2018-09-13T02:50:42.329Z,5.80
2018-09-13T02:53:12.408Z,5.53
2018-09-13T02:55:42.454Z,5.77
2018-09-13T02:58:12.551Z,5.53
2018-09-13T03:00:42.768Z,5.43
2018-09-13T03:03:12.942Z,5.53
2018-09-13T03:05:42.971Z,5.80
2018-09-13T03:08:13.129Z,6.23
2018-09-13T03:10:43.141Z,6.23
2018-09-13T03:13:13.417Z,6.00
2018-09-13T03:15:43.536Z,5.93
2018-09-13T03:18:13.591Z,5.93
2018-09-13T03:20:43.853Z,5.33
2018-09-13T03:23:13.990Z,5.63
2018-09-13T03:25:44.112Z,6.23
2018-09-13T03:28:15.167Z,5.40
2018-09-13T03:30:45.409Z,5.30
2018-09-13T03:33:15.495Z,6.23
2018-09-13T03:35:45.596Z,6.20
2018-09-13T03:38:15.874Z,6.50
2018-09-13T03:40:46.827Z,5.97
2018-09-13T03:43:16.999Z,6.37
2018-09-13T03:45:47.161Z,5.80
2018-09-13T03:48:17.442Z,6.60
2018-09-13T03:50:47.442Z,6.37
2018-09-13T03:53:17.569Z,6.63
2018-09-13T03:55:47.747Z,6.47
2018-09-13T03:58:17.873Z,5.73
2018-09-13T04:00:48.928Z,5.77
2018-09-13T04:03:19.330Z,6.50
2018-09-13T04:05:50.262Z,6.60
2018-09-13T04:08:20.592Z,6.20
2018-09-13T04:10:50.820Z,6.67
2018-09-13T04:13:20.935Z,6.37
2018-09-13T04:15:51.395Z,5.50
2018-09-13T04:18:22.090Z,5.60
2018-09-13T04:20:52.233Z,6.53
2018-09-13T04:23:22.445Z,6.03
2018-09-13T04:25:53.286Z,5.80
2018-09-13T04:28:23.403Z,6.50
2018-09-13T04:30:53.527Z,6.27
2018-09-13T04:33:23.685Z,6.40
2018-09-13T04:35:54.480Z,5.80
2018-09-13T04:38:24.448Z,6.23
2018-09-13T04:40:54.565Z,6.57
2018-09-13T04:43:24.634Z,6.27
2018-09-13T04:45:54.784Z,5.93
2018-09-13T04:48:25.054Z,5.10
2018-09-13T04:50:55.162Z,6.10
2018-09-13T04:53:25.229Z,6.00
2018-09-13T04:55:55.580Z,5.93
2018-09-13T04:58:26.021Z,5.90
2018-09-13T05:00:56.344Z,6.40
2018-09-13T05:03:26.483Z,6.87
2018-09-13T05:05:56.603Z,5.87
2018-09-13T05:08:26.717Z,6.93
2018-09-13T05:10:57.323Z,7.17
2018-09-13T05:13:27.406Z,6.57
2018-09-13T05:15:58.093Z,6.60
2018-09-13T05:18:28.408Z,6.13
2018-09-13T05:20:58.726Z,6.60
2018-09-13T05:23:28.840Z,6.57
2018-09-13T05:25:58.846Z,6.67
2018-09-13T05:28:28.962Z,6.23
2018-09-13T05:30:59.196Z,6.17
2018-09-13T05:33:29.364Z,6.13
2018-09-13T05:35:59.481Z,7.50
2018-09-13T05:38:29.560Z,8.53
2018-09-13T05:40:59.682Z,8.57
2018-09-13T05:43:30.660Z,7.30
2018-09-13T05:46:00.756Z,6.70
2018-09-13T05:48:30.796Z,7.03
2018-09-13T05:51:00.930Z,6.77
2018-09-13T05:53:31.000Z,6.33
2018-09-13T05:56:01.075Z,5.97
2018-09-13T05:58:31.172Z,6.17
2018-09-13T06:01:02.157Z,6.30
2018-09-13T06:03:33.220Z,7.00
2018-09-13T06:06:03.250Z,7.10
2018-09-13T06:08:33.458Z,7.17
2018-09-13T06:11:03.577Z,7.70
2018-09-13T06:13:34.255Z,7.40
2018-09-13T06:16:04.240Z,7.93
2018-09-13T06:18:34.434Z,8.00
2018-09-13T06:21:04.532Z,8.03
2018-09-13T06:23:34.608Z,7.40
2018-09-13T06:26:05.647Z,7.37
2018-09-13T06:28:35.834Z,7.77
2018-09-13T06:31:06.152Z,7.00
2018-09-13T06:33:36.395Z,7.60
2018-09-13T06:36:06.652Z,7.43
2018-09-13T06:38:37.441Z,8.27
2018-09-13T06:41:07.572Z,7.80
2018-09-13T06:43:37.873Z,8.23
2018-09-13T06:46:08.002Z,7.47
2018-09-13T06:48:38.325Z,7.87
2018-09-13T06:51:08.504Z,6.80
2018-09-13T06:53:38.591Z,8.07
2018-09-13T06:56:08.721Z,8.40
2018-09-13T06:58:38.957Z,8.30
2018-09-13T07:01:09.127Z,7.73
2018-09-13T07:03:39.248Z,8.33
2018-09-13T07:06:18.059Z,7.63
2018-09-13T07:08:54.762Z,7.27
2018-09-13T07:11:26.680Z,7.67
2018-09-13T07:14:00.991Z,7.27
2018-09-13T07:16:31.177Z,7.80
2018-09-13T07:19:01.388Z,7.83
2018-09-13T07:21:31.622Z,7.60
2018-09-13T07:24:04.522Z,8.00
2018-09-13T07:26:37.625Z,7.43
2018-09-13T07:29:08.850Z,6.70
2018-09-13T07:31:39.111Z,6.10
2018-09-13T07:34:10.849Z,6.77
2018-09-13T07:36:42.764Z,7.30
2018-09-13T07:39:14.433Z,6.53
2018-09-13T07:41:45.003Z,6.20
2018-09-13T07:44:16.397Z,5.93
2018-09-13T07:46:47.379Z,5.40
2018-09-13T07:49:24.808Z,5.53
2018-09-13T07:51:55.840Z,6.07
2018-09-13T07:54:30.450Z,6.67
2018-09-13T07:57:05.020Z,6.67
2018-09-13T07:59:44.608Z,6.00
2018-09-13T08:02:20.786Z,6.23
2018-09-13T08:04:53.724Z,7.27
2018-09-13T08:07:30.482Z,7.10
2018-09-13T08:10:00.933Z,6.60
2018-09-13T08:12:31.007Z,6.73
2018-09-13T08:15:01.187Z,6.90
2018-09-13T08:17:31.222Z,7.73
2018-09-13T08:20:08.118Z,6.90
2018-09-13T08:22:38.379Z,7.33
2018-09-13T08:25:09.041Z,6.73
2018-09-13T08:27:39.763Z,7.77
2018-09-13T08:30:09.942Z,7.47
2018-09-13T08:32:40.058Z,7.20
2018-09-13T08:35:10.313Z,7.50
2018-09-13T08:37:40.359Z,9.40
2018-09-13T08:40:10.470Z,6.73
2018-09-13T08:42:40.560Z,6.40
2018-09-13T08:45:10.703Z,6.57
2018-09-13T08:47:40.933Z,8.07
2018-09-13T08:50:10.965Z,7.77
2018-09-13T08:52:41.091Z,7.43
2018-09-13T08:55:11.151Z,5.53
2018-09-13T08:57:41.311Z,10.03
2018-09-13T09:00:13.819Z,7.30
2018-09-13T09:02:44.894Z,6.93
2018-09-13T09:05:15.023Z,8.03
2018-09-13T09:07:45.146Z,10.67
2018-09-13T09:10:17.622Z,9.87
2018-09-13T09:12:47.754Z,10.17
2018-09-13T09:15:18.699Z,10.87
2018-09-13T09:17:48.862Z,9.03
2018-09-13T09:20:18.984Z,11.80
2018-09-13T09:22:48.997Z,8.07
2018-09-13T09:25:19.130Z,7.83
2018-09-13T09:27:49.303Z,7.43
2018-09-13T09:30:19.456Z,6.50
2018-09-13T09:32:49.499Z,6.67
2018-09-13T09:35:19.531Z,5.93
2018-09-13T09:37:49.624Z,6.80
2018-09-13T09:40:20.657Z,5.50
2018-09-13T09:42:50.606Z,8.27
2018-09-13T09:45:20.752Z,8.53
2018-09-13T09:47:50.886Z,9.77
2018-09-13T09:50:21.192Z,6.03
2018-09-13T09:52:51.382Z,8.17
2018-09-13T09:55:22.539Z,11.53
2018-09-13T09:57:53.368Z,11.60
2018-09-13T10:00:28.708Z,12.97
2018-09-13T10:02:58.815Z,10.13
2018-09-13T10:05:28.952Z,10.87
2018-09-13T10:08:00.070Z,12.53
2018-09-13T10:10:30.153Z,9.67
2018-09-13T10:13:00.242Z,7.40
2018-09-13T10:15:35.536Z,8.27
2018-09-13T10:18:11.721Z,7.23
2018-09-13T10:20:47.092Z,7.80
2018-09-13T10:23:22.505Z,8.27
2018-09-13T10:25:57.795Z,10.23
2018-09-13T10:28:33.346Z,9.43
2018-09-13T10:31:09.708Z,9.33
2018-09-13T10:33:45.151Z,8.63
2018-09-13T10:36:20.460Z,10.23
2018-09-13T10:38:55.882Z,9.20
2018-09-13T10:41:31.264Z,8.00
2018-09-13T10:44:06.552Z,7.23
2018-09-13T10:46:36.694Z,6.43
2018-09-13T10:49:12.479Z,6.97
2018-09-13T10:51:47.860Z,8.20
2018-09-13T10:54:25.091Z,10.07
2018-09-13T10:56:55.369Z,10.73
2018-09-13T10:59:25.428Z,9.50
2018-09-13T11:01:55.702Z,9.53
2018-09-13T11:04:25.938Z,8.20
2018-09-13T11:06:56.050Z,7.60
2018-09-13T11:09:26.217Z,9.27
2018-09-13T11:11:56.405Z,9.30
2018-09-13T11:15:33.276Z,7.77
2018-09-13T11:18:05.327Z,9.27
2018-09-13T11:20:36.085Z,10.63
2018-09-13T11:23:06.348Z,9.47
2018-09-13T11:25:36.469Z,8.27
2018-09-13T11:28:06.641Z,10.43
2018-09-13T11:30:36.950Z,10.87
2018-09-13T11:33:07.732Z,10.13
2018-09-13T11:35:38.477Z,9.23
2018-09-13T11:38:09.434Z,6.67
2018-09-13T11:40:39.701Z,6.87
2018-09-13T11:43:09.582Z,9.33
2018-09-13T11:45:39.647Z,5.50
2018-09-13T11:48:09.687Z,5.37
2018-09-13T11:50:39.807Z,4.97
2018-09-13T11:53:10.059Z,7.10
2018-09-13T11:55:44.302Z,6.37
2018-09-13T11:58:15.615Z,6.57
2018-09-13T12:00:45.810Z,6.93
2018-09-13T12:03:16.002Z,8.17
2018-09-13T12:05:46.217Z,7.63
2018-09-13T12:08:16.602Z,7.87
2018-09-13T12:10:46.717Z,9.77
2018-09-13T12:13:16.941Z,9.03
2018-09-13T12:15:47.072Z,8.73
2018-09-13T12:18:17.305Z,8.40
2018-09-13T12:20:47.491Z,7.33
2018-09-13T12:23:17.577Z,6.87
2018-09-13T12:25:47.723Z,6.80
2018-09-13T12:28:17.908Z,7.47
2018-09-13T12:30:48.102Z,6.83
2018-09-13T12:33:18.776Z,6.03
2018-09-13T12:35:49.045Z,10.67
2018-09-13T12:38:19.486Z,9.50
2018-09-13T12:40:49.702Z,9.63
2018-09-13T12:43:20.266Z,7.37
2018-09-13T12:45:50.783Z,9.07
2018-09-13T12:48:21.029Z,7.70
2018-09-13T12:50:51.328Z,8.43
2018-09-13T12:53:21.780Z,11.47
2018-09-13T12:55:53.899Z,8.13
2018-09-13T12:58:25.478Z,10.93
2018-09-13T13:00:56.027Z,12.23
2018-09-13T13:03:27.130Z,11.30
2018-09-13T13:05:57.291Z,9.40
2018-09-13T13:08:27.510Z,11.43
2018-09-13T13:10:58.534Z,10.63
2018-09-13T13:13:28.754Z,13.13
2018-09-13T13:15:58.874Z,14.80
2018-09-13T13:18:29.101Z,14.70
2018-09-13T13:20:59.276Z,12.60
2018-09-13T13:23:29.450Z,11.80
2018-09-13T13:25:59.626Z,13.27
2018-09-13T13:28:29.819Z,12.13
2018-09-13T13:31:00.760Z,10.63
2018-09-13T13:33:30.924Z,8.50
2018-09-13T13:36:01.140Z,8.93
2018-09-13T13:38:31.264Z,9.13
2018-09-13T13:41:01.369Z,8.50
2018-09-13T13:43:38.487Z,8.20
2018-09-13T13:46:11.374Z,9.33
2018-09-13T13:48:42.027Z,10.37
2018-09-13T13:51:17.956Z,9.90
2018-09-13T13:53:48.110Z,8.20
2018-09-13T13:56:23.139Z,6.13
2018-09-13T13:58:53.262Z,7.63
2018-09-13T14:01:23.442Z,10.23
2018-09-13T14:03:54.618Z,7.17
2018-09-13T14:06:24.668Z,6.33
2018-09-13T14:08:54.817Z,7.20
2018-09-13T14:11:25.024Z,6.57
2018-09-13T14:13:55.224Z,5.53
2018-09-13T14:16:25.411Z,6.00
2018-09-13T14:18:55.632Z,6.93
2018-09-13T14:21:25.822Z,7.97
2018-09-13T14:23:56.042Z,10.37
2018-09-13T14:26:26.292Z,10.30
2018-09-13T14:28:56.465Z,11.73
2018-09-13T14:31:26.558Z,12.40
2018-09-13T14:33:56.700Z,12.30
2018-09-13T14:36:26.758Z,9.80
2018-09-13T14:38:57.637Z,6.57
2018-09-13T14:41:27.783Z,5.63
2018-09-13T14:43:58.409Z,5.30
2018-09-13T14:46:30.299Z,4.70
2018-09-13T14:49:00.375Z,7.27
2018-09-13T14:51:30.434Z,9.90
2018-09-13T14:54:00.654Z,7.30
2018-09-13T14:56:30.834Z,5.90
2018-09-13T14:59:01.099Z,5.63
2018-09-13T15:01:31.212Z,5.50
2018-09-13T15:04:01.335Z,3.83
2018-09-13T15:06:32.341Z,4.37
2018-09-13T15:09:02.521Z,5.27
2018-09-13T15:11:33.052Z,4.30
2018-09-13T15:14:03.254Z,4.97
2018-09-13T15:16:33.348Z,7.03
2018-09-13T15:19:03.444Z,5.50
2018-09-13T15:21:33.552Z,4.53
2018-09-13T15:24:03.698Z,5.97
2018-09-13T15:26:33.923Z,7.17
2018-09-13T15:29:04.125Z,6.67
2018-09-13T15:31:34.297Z,8.30
2018-09-13T15:34:04.441Z,7.90
2018-09-13T15:36:35.176Z,6.97
2018-09-13T15:39:09.043Z,7.20
2018-09-13T15:41:39.291Z,5.70
2018-09-13T15:44:09.562Z,5.27
2018-09-13T15:46:40.042Z,4.00
2018-09-13T15:49:10.232Z,6.77
2018-09-13T15:51:40.289Z,6.93
2018-09-13T15:54:10.411Z,5.83
2018-09-13T15:56:40.539Z,7.77
2018-09-13T15:59:10.657Z,7.10
2018-09-13T16:01:40.816Z,6.17
2018-09-13T16:04:10.892Z,4.80
2018-09-13T16:06:40.943Z,4.90
2018-09-13T16:09:11.313Z,3.90
2018-09-13T16:11:42.047Z,2.60
2018-09-13T16:14:12.136Z,3.10
2018-09-13T16:16:42.265Z,3.73
2018-09-13T16:19:13.004Z,2.87
2018-09-13T16:21:43.044Z,2.80
2018-09-13T16:24:13.235Z,4.57
2018-09-13T16:26:43.455Z,3.30
2018-09-13T16:29:13.985Z,5.77
2018-09-13T16:31:45.131Z,5.53
2018-09-13T16:34:15.319Z,5.10
2018-09-13T16:36:50.909Z,6.40
2018-09-13T16:39:31.782Z,6.33
2018-09-13T16:42:07.593Z,5.13
2018-09-13T16:44:42.912Z,6.27
2018-09-13T16:47:20.337Z,6.23
2018-09-13T16:49:50.537Z,6.07
2018-09-13T16:52:20.689Z,5.90
2018-09-13T16:54:50.832Z,6.00
2018-09-13T16:57:21.025Z,5.90
2018-09-13T16:59:51.406Z,5.30
2018-09-13T17:02:21.911Z,6.27
2018-09-13T17:04:52.176Z,5.77
2018-09-13T17:07:22.692Z,5.70
2018-09-13T17:09:53.597Z,5.50
2018-09-13T17:12:24.040Z,4.70
2018-09-13T17:14:54.472Z,4.47
2018-09-13T17:17:25.530Z,6.27
2018-09-13T17:19:57.051Z,6.10
2018-09-13T17:22:27.564Z,5.60
2018-09-13T17:24:57.886Z,4.63
2018-09-13T17:27:27.858Z,4.57
2018-09-13T17:29:57.992Z,4.27
2018-09-13T17:32:28.625Z,3.77
2018-09-13T17:34:58.742Z,3.97
2018-09-13T17:37:29.470Z,3.83
2018-09-13T17:40:00.867Z,3.20
2018-09-13T17:42:31.080Z,3.03
2018-09-13T17:45:01.209Z,2.80
2018-09-13T17:47:31.368Z,2.90
2018-09-13T17:50:01.811Z,4.73
2018-09-13T17:52:32.459Z,5.10
2018-09-13T17:55:02.657Z,4.87
2018-09-13T17:57:32.791Z,4.20
2018-09-13T18:00:03.161Z,4.30
2018-09-13T18:02:33.367Z,4.33
2018-09-13T18:05:03.523Z,3.77
2018-09-13T18:07:33.606Z,4.80
2018-09-13T18:10:03.814Z,5.27
2018-09-13T18:12:34.871Z,4.70
2018-09-13T18:15:05.121Z,4.43
2018-09-13T18:17:35.405Z,4.00
2018-09-13T18:20:05.632Z,4.27
2018-09-13T18:22:35.841Z,3.90
2018-09-13T18:25:06.189Z,4.07
2018-09-13T18:27:37.131Z,3.90
2018-09-13T18:30:07.905Z,3.53
2018-09-13T18:32:38.088Z,4.37
2018-09-13T18:35:09.044Z,5.43
2018-09-13T18:37:40.231Z,4.80
2018-09-13T18:40:11.078Z,5.93
2018-09-13T18:42:41.202Z,6.83
2018-09-13T18:45:12.523Z,5.53
2018-09-13T18:47:42.633Z,6.03
2018-09-13T18:50:12.948Z,5.17
2018-09-13T18:52:43.068Z,4.77
2018-09-13T18:55:13.385Z,5.43
2018-09-13T18:57:44.162Z,5.43
2018-09-13T19:00:14.426Z,5.83
2018-09-13T19:02:44.946Z,5.67
2018-09-13T19:05:15.361Z,6.73
2018-09-13T19:07:45.422Z,6.10
2018-09-13T19:10:15.798Z,5.97
2018-09-13T19:12:45.943Z,7.00
2018-09-13T19:15:16.064Z,6.37
2018-09-13T19:17:46.975Z,6.70
2018-09-13T19:20:17.730Z,7.37
2018-09-13T19:22:47.806Z,5.37
2018-09-13T19:25:18.582Z,6.40
2018-09-13T19:27:48.683Z,6.40
2018-09-13T19:30:19.117Z,5.80
2018-09-13T19:32:49.294Z,6.37
2018-09-13T19:35:20.000Z,6.20
2018-09-13T19:37:50.568Z,6.47
2018-09-13T19:40:21.421Z,6.60
2018-09-13T19:42:51.948Z,6.73
2018-09-13T19:45:22.136Z,6.80
2018-09-13T19:47:52.326Z,5.90
2018-09-13T19:50:22.484Z,6.10
2018-09-13T19:52:52.615Z,5.87
2018-09-13T19:55:22.923Z,5.53
2018-09-13T19:57:53.668Z,6.07
2018-09-13T20:00:24.237Z,5.03
2018-09-13T20:02:55.229Z,5.50
2018-09-13T20:05:26.315Z,5.53
2018-09-13T20:07:56.383Z,4.77
2018-09-13T20:10:26.537Z,5.00
2018-09-13T20:12:56.605Z,5.37
2018-09-13T20:15:26.908Z,5.57
2018-09-13T20:17:57.021Z,5.60
2018-09-13T20:20:27.175Z,5.83
2018-09-13T20:22:57.805Z,5.80
2018-09-13T20:25:28.120Z,5.83
2018-09-13T20:27:58.277Z,5.47
2018-09-13T20:30:28.412Z,7.07
2018-09-13T20:32:58.673Z,7.10
2018-09-13T20:35:28.840Z,7.03
2018-09-13T20:37:58.952Z,6.93
2018-09-13T20:40:29.124Z,8.50
2018-09-13T20:43:00.135Z,7.10
2018-09-13T20:45:30.256Z,7.90
2018-09-13T20:48:00.355Z,8.50
2018-09-13T20:50:31.001Z,8.20
2018-09-13T20:53:01.162Z,6.93
2018-09-13T20:55:31.711Z,7.27
2018-09-13T20:58:02.955Z,7.73
2018-09-13T21:00:33.699Z,6.40
2018-09-13T21:03:03.790Z,7.40
2018-09-13T21:05:34.055Z,6.90
2018-09-13T21:08:04.106Z,7.43
2018-09-13T21:10:34.751Z,7.30
2018-09-13T21:13:04.923Z,7.30
2018-09-13T21:15:35.231Z,7.03
2018-09-13T21:18:05.333Z,7.30
2018-09-13T21:20:35.452Z,7.53
2018-09-13T21:23:05.696Z,7.40
2018-09-13T21:25:36.608Z,7.50
2018-09-13T21:28:06.955Z,8.80
2018-09-13T21:30:37.122Z,9.43
2018-09-13T21:33:07.231Z,7.63
2018-09-13T21:35:38.329Z,8.17
2018-09-13T21:38:09.425Z,8.33
2018-09-13T21:40:39.537Z,8.70
2018-09-13T21:43:10.396Z,7.80
2018-09-13T21:45:40.598Z,7.87
2018-09-13T21:48:11.370Z,7.43
2018-09-13T21:50:44.184Z,7.50
2018-09-13T21:53:18.296Z,7.83
2018-09-13T21:55:49.202Z,8.30
2018-09-13T21:58:19.284Z,7.27
2018-09-13T22:00:49.459Z,7.13
2018-09-13T22:03:19.747Z,7.33
2018-09-13T22:05:51.573Z,7.70
2018-09-13T22:08:21.834Z,7.37
2018-09-13T22:10:52.158Z,8.37
2018-09-13T22:13:23.177Z,8.70
2018-09-13T22:15:53.372Z,7.90
2018-09-13T22:18:24.492Z,7.57
2018-09-13T22:20:54.625Z,8.83
2018-09-13T22:23:24.962Z,8.53
2018-09-13T22:25:56.161Z,8.00
2018-09-13T22:28:26.315Z,8.30
2018-09-13T22:30:56.514Z,8.10
2018-09-13T22:33:26.758Z,10.10
2018-09-13T22:35:57.043Z,10.03
2018-09-13T22:38:27.200Z,9.90
2018-09-13T22:40:57.510Z,10.87
2018-09-13T22:43:31.642Z,9.17
2018-09-13T22:46:01.793Z,8.60
2018-09-13T22:48:32.626Z,10.70
2018-09-13T22:51:02.746Z,10.47
2018-09-13T22:53:32.961Z,10.37
2018-09-13T22:56:02.992Z,9.40
2018-09-13T22:58:33.173Z,10.43
2018-09-13T23:01:04.414Z,10.33
2018-09-13T23:03:34.522Z,9.73
2018-09-13T23:06:04.676Z,9.90
2018-09-13T23:08:35.204Z,9.90
2018-09-13T23:11:05.329Z,13.00
2018-09-13T23:13:35.441Z,11.93
2018-09-13T23:16:05.674Z,13.13
2018-09-13T23:18:35.777Z,12.30
2018-09-13T23:21:05.905Z,11.13
2018-09-13T23:23:36.085Z,10.60
2018-09-13T23:26:06.164Z,9.90
2018-09-13T23:28:36.250Z,10.83
2018-09-13T23:31:06.379Z,11.20
2018-09-13T23:33:36.456Z,11.73
2018-09-13T23:36:06.652Z,13.43
2018-09-13T23:38:36.872Z,14.50
2018-09-13T23:41:06.965Z,13.47
2018-09-13T23:43:37.114Z,13.53
2018-09-13T23:46:08.204Z,15.70
2018-09-13T23:48:38.265Z,14.70
2018-09-13T23:51:08.688Z,15.37
2018-09-13T23:53:39.230Z,15.00
2018-09-13T23:56:09.758Z,15.80
2018-09-13T23:58:40.499Z,16.03
